Share

Freeman, SD

10:03 AM CDT on April 23, 2014 (GMT -0500)
KSDFREEM4 Elev 1440 ft | 43.43 °N, 97.48 °W | Change Station

Current weather conditions updated 3 minutes ago

Scattered Clouds
Scattered Clouds
52.8 °F
Feels Like 52.8 °F
N
35.0
Wind Variable Wind from ESE
Gusts 35.0 mph
Sunrise 6:34 AM
Sunset 8:22 PM
Moon Waning Crescent

Today is forecast to be Warmer than yesterday. Rain and thunder tonight.

Pressure 29.79 in
Visibility 10.0 miles
Clouds Scattered Clouds 7500 ft
Dew Point 38 °F
Humidity 58%
Rainfall 0.00 in
Snow Depth Not available.
UV 3 out of 16
Pollen 8.70 out of 12
Air Quality Not available.
Flu Activity Sporadic
METAR KMDS 231455Z AUTO 14023G34KT 10SM SCT075 10/02 A2979 RMK AO2

More Conditions Fewer Conditions

Pressure 29.79 in
Visibility 10.0 miles
Clouds Scattered Clouds 7500 ft
Dew Point 38 °F
Humidity 58%
Rainfall 0.00 in
Snow Depth Not available.
UV 3 out of 16
Pollen 8.70 out of 12
Air Quality Not available.
Flu Activity Sporadic
METAR KMDS 231455Z AUTO 14023G34KT 10SM SCT075 10/02 A2979 RMK AO2

More Conditions Fewer Conditions

10-Day Weather Forecast

Almanac

Astronomy

Apr. 23, 2014 Rise Set
Actual Time 6:34 AM CDT 8:22 PM CDT
Civil Twilight 6:04 AM CDT 8:52 PM CDT
Nautical Twilight 5:27 AM CDT 9:29 PM CDT
Astronomical Twilight 4:47 AM CDT 10:10 PM CDT
Moon 3:17 AM CDT 2:22 PM CDT
Length of Visible Light 14h 48m
Length of Day
13h 47m
Tomorrow will be 2m 43s longer.
Waning Crescent, 35% of the Moon is Illuminated
Today
Waning Crescent
Apr 29
New
May 6
First Quarter
May 14
Full
May 21
Last Quarter

Today's Extremes

State Highs State Lows

Community

  • spring flowers
    spring flowers
  • Earth Day Spectrum Ove' Blue
    Earth Day Spectrum Ove' Blue
  • BARN B&W
    BARN B&W
  • April Sunset
    April Sunset
  • Waiting..
    Waiting..

WunderPhotos

Upload Photos

1,704,303 photos uploaded!

Nearby

Snow Depth

Station Depth Elevation
North Rapid Creek 12 in 6130 ft
Blind Park 13 in 6890 ft

Coastal Water Temperatures

Place Temperature
No Stations Reporting

Earthquake Activity

City Distance Mag. Time & Date
No recent earthquake activity has been reported nearby.
Minimum magnitude displayed is 2.5.

Nearby Weather Stations

Station Location Temp. Dew Point Humidity Wind Precip. Elev Updated Type
FREEMAN, SD 52.8 °F 38 °F 58% ESE  at  35.0 mph 0.00 in / hr 1440 ft 10:00 AM CDT Normal
Turkey Ridge, Freeman, SD 52.5 °F 37 °F 56% ESE  at  33.0 mph 0.00 in / hr 1644 ft 10:00 AM CDT Normal
Parker, SD 54.5 °F 28 °F 36% WSW  at  0.0 mph 0.00 in / hr 1408 ft 10:03 AM CDT Rapid Fire
Scotland, SD, Scotland, SD 55.1 °F 38 °F 52% SE  at  9.0 mph 0.00 in / hr 1362 ft 9:53 AM CDT Normal

Show More Stations Show Fewer Stations

What do you think?

We're not finished. Please let us know what you like, what you don't like, and what you are still missing.